Time;durP1;ratioP1;P1;durP2;ratioP2;P2;SDS_P1;SDS_P2;PMS_P1;PMS_P2;Temp;Humidity;BMP_temperature;BMP_pressure;BME280_temperature;BME280_humidity;BME280_pressure;Samples;Min_cycle;Max_cycle;Signal;HPM_P1;HPM_P2
2021/12/11 00:00:48;;;;;;;59.40;33.80;;;;;;;2.62;85.15;100437.13;4993063;28;20456;-45
2021/12/11 00:03:22;;;;;;;58.33;32.40;;;;;;;2.63;85.46;100443.19;4992411;28;20864;-46
2021/12/11 00:05:53;;;;;;;66.63;35.00;;;;;;;2.61;85.88;100440.72;4992957;28;20457;-47
2021/12/11 00:08:27;;;;;;;59.77;32.33;;;;;;;2.64;85.32;100447.47;4993041;28;20442;-46
2021/12/11 00:10:59;;;;;;;56.93;31.10;;;;;;;2.62;85.20;100447.66;4992938;28;20430;-44
2021/12/11 00:13:29;;;;;;;65.47;32.20;;;;;;;2.62;85.68;100452.91;4991931;28;20485;-45
2021/12/11 00:15:58;;;;;;;58.33;31.67;;;;;;;2.63;86.24;100451.09;4993157;28;20430;-44
2021/12/11 00:18:29;;;;;;;59.33;31.00;;;;;;;2.63;85.52;100461.63;4992920;28;20460;-46
2021/12/11 00:21:01;;;;;;;63.20;36.07;;;;;;;2.62;86.14;100458.19;4992360;28;20445;-45
2021/12/11 00:23:33;;;;;;;49.10;29.20;;;;;;;2.61;86.09;100460.94;4991948;28;20497;-44
2021/12/11 00:26:04;;;;;;;57.37;33.43;;;;;;;2.61;86.10;100466.22;4992546;28;20457;-45
2021/12/11 00:28:32;;;;;;;62.67;35.07;;;;;;;2.61;86.29;100471.47;4993006;28;20438;-44
2021/12/11 00:31:00;;;;;;;59.33;32.40;;;;;;;2.60;86.01;100469.81;4992691;28;20438;-46
2021/12/11 00:33:32;;;;;;;52.37;30.40;;;;;;;2.62;85.79;100473.16;4991829;28;20878;-44
2021/12/11 00:36:01;;;;;;;45.73;28.43;;;;;;;2.60;85.96;100473.28;4992535;28;20454;-45
2021/12/11 00:38:34;;;;;;;60.60;32.17;;;;;;;2.61;85.71;100477.59;4989323;28;20804;-45
2021/12/11 00:41:05;;;;;;;60.87;32.57;;;;;;;2.62;86.02;100486.31;4988608;28;20430;-44
2021/12/11 00:43:35;;;;;;;65.23;33.60;;;;;;;2.62;85.79;100479.25;4991495;28;20442;-43
2021/12/11 00:46:06;;;;;;;56.93;31.23;;;;;;;2.62;85.82;100487.16;4992315;28;20442;-44
2021/12/11 00:48:34;;;;;;;58.27;32.00;;;;;;;2.64;85.95;100498.34;4973034;28;20434;-45
2021/12/11 00:51:05;;;;;;;62.20;33.93;;;;;;;2.64;85.82;100489.59;4972926;28;20430;-43
2021/12/11 00:53:36;;;;;;;59.20;32.00;;;;;;;2.64;85.82;100495.72;4972615;28;20501;-43
2021/12/11 00:56:09;;;;;;;62.20;33.03;;;;;;;2.63;86.11;100487.94;4973195;28;20451;-43
2021/12/11 00:58:40;;;;;;;68.90;34.73;;;;;;;2.61;86.29;100498.63;4972996;28;20435;-48
2021/12/11 01:01:14;;;;;;;66.03;35.10;;;;;;;2.60;86.46;100498.78;4972404;28;20427;-45
2021/12/11 01:03:48;;;;;;;63.83;34.17;;;;;;;2.58;86.58;100498.94;4972639;28;20423;-45
2021/12/11 01:06:19;;;;;;;45.03;29.73;;;;;;;2.56;86.58;100503.53;4972947;28;20468;-45
2021/12/11 01:08:54;;;;;;;74.97;34.77;;;;;;;2.53;86.82;100506.47;4973129;28;20423;-44
2021/12/11 01:11:27;;;;;;;61.60;33.37;;;;;;;2.48;87.17;100506.06;4972440;28;20435;-44
2021/12/11 01:14:08;;;;;;;58.13;32.33;;;;;;;2.47;86.67;100517.59;4972411;28;20475;-48
2021/12/11 01:16:36;;;;;;;66.00;32.90;;;;;;;2.44;86.67;100517.91;4972803;28;20818;-46
2021/12/11 01:19:06;;;;;;;60.23;34.50;;;;;;;2.42;86.75;100516.41;4972975;28;20801;-43
2021/12/11 01:21:44;;;;;;;61.40;33.97;;;;;;;2.42;86.63;100529.56;4972264;28;20463;-43
2021/12/11 01:24:27;;;;;;;47.40;30.10;;;;;;;2.41;86.19;100530.53;4972465;28;20806;-43
2021/12/11 01:26:59;;;;;;;50.33;30.53;;;;;;;2.40;86.26;100536.75;4972823;28;20474;-45
2021/12/11 01:29:28;;;;;;;59.97;32.90;;;;;;;2.41;86.30;100538.41;4972617;28;20427;-43
2021/12/11 01:31:57;;;;;;;65.90;33.00;;;;;;;2.39;86.22;100540.38;4972157;28;20845;-46
2021/12/11 01:34:26;;;;;;;59.27;32.60;;;;;;;2.40;86.04;100542.84;4976114;28;20435;-42
2021/12/11 01:36:55;;;;;;;62.03;31.97;;;;;;;2.40;85.72;100539.38;4976084;28;20486;-47
2021/12/11 01:39:26;;;;;;;65.90;32.67;;;;;;;2.41;85.88;100531.34;4989119;28;20466;-44
2021/12/11 01:41:57;;;;;;;58.60;33.30;;;;;;;2.39;86.13;100533.28;4995376;28;20966;-43
2021/12/11 01:44:30;;;;;;;60.37;33.07;;;;;;;2.41;85.46;100533.16;4995492;28;20436;-45
2021/12/11 01:47:02;;;;;;;72.37;33.50;;;;;;;2.40;85.44;100542.00;4995523;28;20824;-43
2021/12/11 01:49:31;;;;;;;60.10;32.30;;;;;;;2.39;85.78;100549.06;4995443;28;20434;-43
2021/12/11 01:52:06;;;;;;;59.23;31.20;;;;;;;2.40;85.20;100552.53;4995084;28;20482;-43
2021/12/11 01:54:37;;;;;;;50.40;30.87;;;;;;;2.38;85.32;100557.97;4995339;28;20429;-43
2021/12/11 01:57:13;;;;;;;66.33;33.13;;;;;;;2.38;85.88;100559.78;4995355;28;20458;-42
2021/12/11 01:59:46;;;;;;;59.03;30.80;;;;;;;2.39;85.51;100564.88;4995104;28;20437;-45
2021/12/11 02:02:19;;;;;;;68.13;34.10;;;;;;;2.40;85.44;100565.69;4994844;28;20473;-43
2021/12/11 02:04:49;;;;;;;53.67;30.33;;;;;;;2.39;85.56;100567.50;4995131;28;20434;-45
2021/12/11 02:07:21;;;;;;;57.90;31.10;;;;;;;2.39;85.44;100578.03;4994912;28;20995;-48
2021/12/11 02:09:55;;;;;;;67.40;31.83;;;;;;;2.39;85.72;100577.22;4995039;28;20924;-45
2021/12/11 02:12:31;;;;;;;57.27;31.27;;;;;;;2.37;85.72;100590.50;4994475;28;20469;-44
2021/12/11 02:15:02;;;;;;;62.63;31.10;;;;;;;2.32;86.45;100595.41;4995419;28;20441;-44
2021/12/11 02:17:33;;;;;;;57.40;32.00;;;;;;;2.32;85.74;100608.56;4995214;28;20457;-43
2021/12/11 02:20:05;;;;;;;65.97;31.20;;;;;;;2.21;84.79;100622.72;4995013;28;20846;-43
2021/12/11 02:22:39;;;;;;;68.23;34.53;;;;;;;2.08;81.61;100631.94;4994254;28;20497;-48
2021/12/11 02:25:11;;;;;;;73.43;35.60;;;;;;;2.14;79.33;100631.34;4994968;28;20946;-44
2021/12/11 02:27:45;;;;;;;66.20;34.03;;;;;;;2.19;78.18;100643.09;4994865;28;20458;-43
2021/12/11 02:30:20;;;;;;;79.43;32.57;;;;;;;2.23;78.48;100641.00;4994764;28;20434;-43
2021/12/11 02:32:54;;;;;;;75.37;36.70;;;;;;;2.26;78.61;100635.44;4994094;28;20480;-47
2021/12/11 02:35:29;;;;;;;59.43;33.00;;;;;;;2.28;79.40;100636.13;4994557;28;20437;-45
2021/12/11 02:38:09;;;;;;;51.73;31.17;;;;;;;2.30;79.45;100636.78;4994667;28;20461;-44
2021/12/11 02:40:41;;;;;;;56.43;32.37;;;;;;;2.33;79.37;100641.78;4987029;28;20422;-43
2021/12/11 02:43:17;;;;;;;55.80;31.43;;;;;;;2.38;79.78;100643.97;4993451;28;20990;-43
2021/12/11 02:45:49;;;;;;;68.97;33.47;;;;;;;2.38;80.35;100652.72;4994321;28;20426;-43
2021/12/11 02:48:23;;;;;;;65.53;34.23;;;;;;;2.41;80.67;100643.69;4994707;28;20492;-43
2021/12/11 02:50:55;;;;;;;60.30;35.00;;;;;;;2.39;81.26;100646.44;4994505;28;20445;-44
2021/12/11 02:53:27;;;;;;;67.77;35.40;;;;;;;2.37;82.39;100648.41;4993638;28;20568;-43
2021/12/11 02:55:58;;;;;;;59.60;31.93;;;;;;;2.37;83.12;100653.66;4994153;28;20438;-43
2021/12/11 02:58:29;;;;;;;64.67;34.30;;;;;;;2.34;83.57;100655.75;4994525;28;20821;-46
2021/12/11 03:00:59;;;;;;;70.50;34.60;;;;;;;2.33;83.72;100648.84;4994600;28;20430;-45
2021/12/11 03:03:35;;;;;;;64.27;36.10;;;;;;;2.36;82.65;100657.25;4993574;28;20470;-43
2021/12/11 03:08:38;;;;;;;64.57;33.20;;;;;;;2.37;82.98;100664.19;4972802;28;20447;-43
2021/12/11 03:11:09;;;;;;;52.57;29.67;;;;;;;2.37;83.52;100661.56;4974235;28;20435;-44
2021/12/11 03:13:39;;;;;;;58.50;33.57;;;;;;;2.37;83.76;100673.88;4955064;29;20489;-45
2021/12/11 03:16:08;;;;;;;57.03;28.90;;;;;;;2.37;83.88;100673.88;4955355;28;20443;-46
2021/12/11 03:18:37;;;;;;;55.13;32.00;;;;;;;2.38;84.08;100678.19;4955226;29;20523;-44
2021/12/11 03:21:05;;;;;;;63.50;34.80;;;;;;;2.38;83.61;100679.03;4955083;28;20444;-44
2021/12/11 03:23:33;;;;;;;69.20;36.77;;;;;;;2.39;83.98;100688.56;4973993;28;20436;-43
2021/12/11 03:26:02;;;;;;;48.50;30.90;;;;;;;2.40;83.75;100687.59;4974254;28;20924;-44
2021/12/11 03:28:30;;;;;;;76.47;36.70;;;;;;;2.41;84.05;100678.72;4974378;28;20437;-45
2021/12/11 03:31:01;;;;;;;55.17;31.37;;;;;;;2.40;84.60;100687.59;4974304;28;20438;-44
2021/12/11 03:33:33;;;;;;;54.63;32.30;;;;;;;2.41;84.18;100691.06;4973438;28;20483;-44
2021/12/11 03:36:03;;;;;;;63.40;31.77;;;;;;;2.39;84.99;100699.09;4974373;28;20442;-44
2021/12/11 03:38:32;;;;;;;58.17;31.37;;;;;;;2.40;84.81;100694.66;4970759;28;20444;-43
2021/12/11 03:41:02;;;;;;;64.97;34.73;;;;;;;2.40;84.58;100694.66;4969900;28;20435;-45
2021/12/11 03:43:31;;;;;;;72.00;36.23;;;;;;;2.38;84.70;100705.34;4954166;28;20470;-46
2021/12/11 03:46:01;;;;;;;67.30;34.60;;;;;;;2.38;84.63;100709.78;4954683;28;20436;-48
2021/12/11 03:48:32;;;;;;;54.47;33.90;;;;;;;2.38;84.75;100713.22;4954828;28;20436;-45
2021/12/11 03:51:00;;;;;;;70.10;33.83;;;;;;;2.36;84.77;100709.91;4954819;28;20937;-43
2021/12/11 03:53:28;;;;;;;71.23;36.77;;;;;;;2.35;84.96;100702.16;4954094;28;20487;-45
2021/12/11 03:55:59;;;;;;;71.30;34.87;;;;;;;2.36;84.80;100709.91;4953845;28;20438;-46
2021/12/11 03:58:28;;;;;;;64.70;35.20;;;;;;;2.36;85.18;100727.50;4954377;28;20471;-49
2021/12/11 04:01:00;;;;;;;78.47;38.60;;;;;;;2.36;84.78;100719.63;4954508;28;20797;-45
2021/12/11 04:03:32;;;;;;;64.33;32.63;;;;;;;2.36;84.37;100707.25;4953551;28;20815;-46
2021/12/11 04:06:04;;;;;;;69.87;35.57;;;;;;;2.36;84.45;100717.78;4954239;28;20436;-43
2021/12/11 04:08:40;;;;;;;69.80;35.33;;;;;;;2.34;84.83;100722.38;4954093;28;20474;-45
2021/12/11 04:11:09;;;;;;;58.80;30.27;;;;;;;2.34;84.23;100727.66;4953870;28;20486;-46
2021/12/11 04:13:39;;;;;;;65.90;35.30;;;;;;;2.35;84.37;100725.84;4954224;28;20483;-47
2021/12/11 04:16:09;;;;;;;66.63;33.10;;;;;;;2.34;84.26;100732.06;4954261;28;20426;-47
2021/12/11 04:18:37;;;;;;;76.23;34.47;;;;;;;2.32;84.58;100723.50;4954206;28;20432;-45
2021/12/11 04:21:05;;;;;;;61.40;33.20;;;;;;;2.34;84.21;100726.81;4954166;28;20440;-45
2021/12/11 04:23:34;;;;;;;61.53;33.23;;;;;;;2.33;84.36;100735.69;4953736;28;20981;-45
2021/12/11 04:26:03;;;;;;;71.03;35.40;;;;;;;2.31;84.46;100735.00;4954311;28;20436;-45
2021/12/11 04:28:35;;;;;;;61.37;34.50;;;;;;;2.31;84.12;100746.34;4954156;28;20803;-45
2021/12/11 04:31:07;;;;;;;59.80;32.57;;;;;;;2.32;83.77;100742.75;4954110;28;20442;-45
2021/12/11 04:33:39;;;;;;;64.70;33.93;;;;;;;2.32;83.85;100734.88;4972770;28;20806;-44
2021/12/11 04:36:09;;;;;;;59.20;31.50;;;;;;;2.34;83.64;100738.16;4972951;28;20922;-45
2021/12/11 04:38:38;;;;;;;61.67;33.97;;;;;;;2.36;83.90;100744.09;4969365;28;20436;-46
2021/12/11 04:41:08;;;;;;;56.70;30.77;;;;;;;2.35;84.12;100737.22;4968184;28;20512;-46
2021/12/11 04:43:36;;;;;;;51.20;31.00;;;;;;;2.37;83.68;100745.78;4971245;28;20439;-46
2021/12/11 04:46:09;;;;;;;59.37;29.47;;;;;;;2.38;83.54;100742.19;4972817;28;20987;-44
2021/12/11 04:48:47;;;;;;;63.53;33.50;;;;;;;2.40;83.42;100748.13;4972848;28;20424;-45
2021/12/11 04:51:22;;;;;;;51.40;29.80;;;;;;;2.40;83.93;100750.75;4971108;28;20439;-48
2021/12/11 04:54:01;;;;;;;58.77;31.37;;;;;;;2.41;83.98;100748.97;4972220;28;20434;-46
2021/12/11 04:56:52;;;;;;;54.10;29.77;;;;;;;2.41;84.59;100749.78;4973044;28;20823;-44
2021/12/11 04:59:36;;;;;;;66.10;30.03;;;;;;;2.40;84.69;100749.91;4968324;28;20458;-44
2021/12/11 05:02:29;;;;;;;57.17;29.50;;;;;;;2.39;85.29;100759.59;4972345;28;20515;-45
2021/12/11 05:05:10;;;;;;;57.83;30.97;;;;;;;2.38;85.55;100759.78;4965176;28;20853;-47
2021/12/11 05:07:44;;;;;;;57.83;32.37;;;;;;;2.34;85.99;100768.91;4975554;28;20477;-44
2021/12/11 05:10:18;;;;;;;56.07;30.97;;;;;;;2.28;86.91;100772.13;4976783;28;20437;-47
2021/12/11 05:12:49;;;;;;;61.30;32.00;;;;;;;2.22;87.49;100773.53;4965724;28;21038;-44
2021/12/11 05:15:20;;;;;;;63.73;32.83;;;;;;;2.16;87.81;100776.72;4975539;28;20489;-44
2021/12/11 05:17:51;;;;;;;48.93;28.90;;;;;;;2.06;87.96;100776.72;4976371;28;20462;-45
2021/12/11 05:20:22;;;;;;;58.23;31.90;;;;;;;1.97;88.21;100782.81;4976442;28;20453;-46
2021/12/11 05:22:50;;;;;;;62.13;30.40;;;;;;;1.91;88.75;100787.84;4975498;28;20462;-45
2021/12/11 05:25:18;;;;;;;63.23;31.30;;;;;;;1.83;88.64;100793.78;4976366;28;20442;-44
2021/12/11 05:27:47;;;;;;;58.30;31.87;;;;;;;1.77;88.76;100789.09;4975925;28;20848;-42
2021/12/11 05:30:20;;;;;;;48.57;28.23;;;;;;;1.75;88.00;100792.81;4976016;28;20426;-44
2021/12/11 05:32:49;;;;;;;63.10;32.43;;;;;;;1.69;88.03;100799.47;4973291;28;20474;-44
2021/12/11 05:35:18;;;;;;;58.17;29.93;;;;;;;1.64;88.16;100807.75;4965982;28;20490;-44
2021/12/11 05:37:46;;;;;;;58.27;31.70;;;;;;;1.58;88.24;100810.94;4974563;28;20462;-47
2021/12/11 05:40:19;;;;;;;60.13;32.07;;;;;;;1.52;87.99;100818.56;4971612;28;20791;-45
2021/12/11 05:42:48;;;;;;;56.73;31.57;;;;;;;1.46;87.46;100809.44;4973939;28;20474;-44
2021/12/11 05:45:16;;;;;;;57.77;31.17;;;;;;;1.43;87.89;100807.06;4973569;28;20435;-46
2021/12/11 05:47:44;;;;;;;68.67;33.70;;;;;;;1.39;87.43;100802.19;4974547;28;20999;-43
2021/12/11 05:50:19;;;;;;;56.27;28.77;;;;;;;1.37;86.88;100802.34;4974992;28;20454;-46
2021/12/11 05:52:48;;;;;;;55.10;31.90;;;;;;;1.35;86.82;100812.16;4969389;28;20473;-44
2021/12/11 05:55:18;;;;;;;54.73;29.13;;;;;;;1.35;86.29;100811.31;4973925;28;20482;-43
2021/12/11 05:57:50;;;;;;;57.10;29.37;;;;;;;1.37;84.91;100810.25;4974742;28;20857;-45
2021/12/11 06:00:21;;;;;;;66.47;33.43;;;;;;;1.39;84.24;100812.72;4972376;28;20428;-44
2021/12/11 06:03:04;;;;;;;60.80;31.47;;;;;;;1.40;83.05;100817.84;4972661;28;20470;-48
2021/12/11 06:05:33;;;;;;;53.90;29.53;;;;;;;1.40;82.65;100817.84;4969542;28;20999;-44
2021/12/11 06:08:01;;;;;;;54.70;30.63;;;;;;;1.42;81.52;100823.78;4973834;28;20469;-46
2021/12/11 06:10:29;;;;;;;58.87;31.07;;;;;;;1.42;81.45;100830.84;4973855;28;20443;-46
2021/12/11 06:13:00;;;;;;;63.50;31.67;;;;;;;1.42;80.08;100829.03;4973242;28;20467;-46
2021/12/11 06:15:28;;;;;;;56.53;31.17;;;;;;;1.44;79.55;100821.00;4974379;28;20495;-43
2021/12/11 06:17:56;;;;;;;58.27;33.37;;;;;;;1.47;78.69;100841.75;4972740;28;20826;-44
2021/12/11 06:20:26;;;;;;;44.40;30.13;;;;;;;1.50;78.25;100836.22;4973533;28;20446;-43
2021/12/11 06:22:56;;;;;;;60.90;31.27;;;;;;;1.53;77.93;100841.22;4971908;28;20467;-44
2021/12/11 06:25:27;;;;;;;54.00;29.00;;;;;;;1.53;78.20;100839.44;4973063;28;20427;-45
2021/12/11 06:27:55;;;;;;;57.43;29.37;;;;;;;1.56;77.49;100840.94;4972768;28;20463;-46
2021/12/11 06:30:23;;;;;;;51.27;28.47;;;;;;;1.58;78.17;100839.03;4949629;28;21004;-44
2021/12/11 06:32:52;;;;;;;56.30;29.83;;;;;;;1.58;78.75;100844.28;4972569;28;20435;-44
2021/12/11 06:35:28;;;;;;;57.90;30.93;;;;;;;1.56;79.27;100847.03;4973565;28;20483;-43
2021/12/11 06:37:58;;;;;;;47.37;27.07;;;;;;;1.55;79.43;100841.94;4973330;28;20458;-43
2021/12/11 06:40:28;;;;;;;51.90;30.03;;;;;;;1.53;80.38;100854.34;4970557;28;20482;-42
2021/12/11 06:42:56;;;;;;;58.13;30.43;;;;;;;1.46;81.61;100858.50;4973132;28;20427;-44
2021/12/11 06:45:25;;;;;;;49.80;30.67;;;;;;;1.39;82.02;100855.59;4971453;28;20441;-44
2021/12/11 06:47:54;;;;;;;63.20;30.87;;;;;;;1.35;82.12;100862.06;4972448;28;21000;-44
2021/12/11 06:50:23;;;;;;;46.63;29.60;;;;;;;1.33;81.99;100871.06;4967424;28;20471;-45
2021/12/11 06:52:52;;;;;;;57.47;32.50;;;;;;;1.29;81.92;100870.47;4972983;28;20435;-43
2021/12/11 06:55:22;;;;;;;67.17;33.20;;;;;;;1.26;81.83;100875.16;4965651;28;20849;-44
2021/12/11 06:57:50;;;;;;;50.27;28.73;;;;;;;1.27;81.39;100882.09;4972416;28;20462;-45
2021/12/11 07:00:20;;;;;;;60.87;31.17;;;;;;;1.29;81.21;100888.03;4972209;28;20470;-47
2021/12/11 07:02:48;;;;;;;55.13;31.50;;;;;;;1.32;80.55;100891.25;4969741;28;20435;-46
2021/12/11 07:05:16;;;;;;;67.90;32.57;;;;;;;1.36;80.22;100899.69;4972549;28;20435;-44
2021/12/11 07:07:44;;;;;;;54.00;29.80;;;;;;;1.41;79.52;100905.38;4971479;28;20557;-43
2021/12/11 07:10:18;;;;;;;57.57;30.20;;;;;;;1.45;79.27;100909.41;4971787;28;20996;-45
2021/12/11 07:12:48;;;;;;;64.13;34.93;;;;;;;1.49;78.74;100906.34;4970883;28;20510;-43
2021/12/11 07:15:17;;;;;;;47.47;28.20;;;;;;;1.53;78.63;100914.81;4972496;28;20446;-44
2021/12/11 07:17:44;;;;;;;58.53;30.73;;;;;;;1.55;78.83;100908.44;4971796;28;20462;-45
2021/12/11 07:20:15;;;;;;;61.20;32.50;;;;;;;1.58;78.60;100910.81;4971848;28;20466;-45
2021/12/11 07:22:44;;;;;;;50.57;28.47;;;;;;;1.62;78.64;100921.88;4971775;28;20427;-43
2021/12/11 07:25:18;;;;;;;67.33;34.00;;;;;;;1.65;78.06;100922.47;4972355;28;20784;-44
2021/12/11 07:27:48;;;;;;;47.43;31.33;;;;;;;1.69;77.56;100923.03;4972181;28;20447;-44
2021/12/11 07:30:16;;;;;;;55.63;30.03;;;;;;;1.74;77.29;100917.34;4971317;28;20477;-43
2021/12/11 07:32:44;;;;;;;54.93;31.73;;;;;;;1.78;77.36;100924.00;4971404;28;20446;-44
2021/12/11 07:35:12;;;;;;;51.70;28.63;;;;;;;1.82;77.06;100928.03;4969119;28;20451;-43
2021/12/11 07:37:39;;;;;;;53.50;31.23;;;;;;;1.85;77.05;100931.19;4970871;28;20461;-43
2021/12/11 07:40:10;;;;;;;56.23;33.60;;;;;;;1.88;77.37;100938.00;4969471;28;20996;-44
2021/12/11 07:42:37;;;;;;;48.40;30.37;;;;;;;1.90;77.81;100938.69;4971796;28;20447;-44
2021/12/11 07:45:08;;;;;;;56.53;30.20;;;;;;;1.92;77.77;100950.75;4972115;28;20954;-44
2021/12/11 07:47:35;;;;;;;49.50;30.33;;;;;;;1.94;77.62;100950.63;4971598;28;20443;-43
2021/12/11 07:50:05;;;;;;;57.03;28.47;;;;;;;1.98;77.38;100952.00;4971896;28;20466;-44
2021/12/11 07:52:33;;;;;;;48.60;27.50;;;;;;;2.00;77.51;100953.50;4970207;28;20708;-45
2021/12/11 07:55:01;;;;;;;42.13;25.80;;;;;;;2.04;77.71;100962.81;4971770;28;20441;-43
2021/12/11 07:57:29;;;;;;;49.10;27.63;;;;;;;2.08;77.13;100958.09;4971752;28;20846;-44
2021/12/11 07:59:56;;;;;;;53.43;29.87;;;;;;;2.10;77.61;100969.31;4970833;28;20498;-43
2021/12/11 08:02:25;;;;;;;46.57;28.90;;;;;;;2.13;77.36;100972.50;4959528;28;20427;-45
2021/12/11 08:04:53;;;;;;;39.83;24.80;;;;;;;2.16;76.97;100968.75;4967743;28;20431;-44
2021/12/11 08:07:21;;;;;;;54.20;28.50;;;;;;;2.21;76.28;100966.56;4971019;28;20486;-44
2021/12/11 08:09:48;;;;;;;48.03;26.70;;;;;;;2.23;76.10;100978.63;4970737;28;20446;-44
2021/12/11 08:12:19;;;;;;;51.23;28.67;;;;;;;2.29;75.31;100976.41;4971071;28;21195;-46
2021/12/11 08:14:46;;;;;;;45.83;27.07;;;;;;;2.34;75.04;100982.06;4970991;28;20435;-45
2021/12/11 08:17:15;;;;;;;46.77;25.97;;;;;;;2.38;75.55;100992.19;4971332;28;20479;-45
2021/12/11 08:19:44;;;;;;;43.30;24.17;;;;;;;2.44;75.31;100985.56;4970602;28;20436;-44
2021/12/11 08:22:12;;;;;;;42.57;25.23;;;;;;;2.48;75.58;100981.69;4972005;28;20446;-46
2021/12/11 08:24:41;;;;;;;44.40;24.03;;;;;;;2.52;75.32;100989.16;4971844;28;20443;-44
2021/12/11 08:27:12;;;;;;;34.23;21.60;;;;;;;2.57;75.10;100992.19;4971648;28;20447;-44
2021/12/11 08:29:41;;;;;;;47.13;24.97;;;;;;;2.60;76.05;100991.06;4959981;28;20511;-44
2021/12/11 08:32:09;;;;;;;40.93;22.80;;;;;;;2.64;76.11;100998.56;4971835;28;20427;-46
2021/12/11 08:34:37;;;;;;;37.43;22.73;;;;;;;2.66;76.37;100993.97;4971125;28;20431;-44
2021/12/11 08:37:09;;;;;;;43.47;25.20;;;;;;;2.70;76.58;100991.91;4970954;28;20485;-44
2021/12/11 08:39:37;;;;;;;38.80;24.83;;;;;;;2.70;77.55;101000.66;4958181;28;20431;-44
2021/12/11 08:42:09;;;;;;;41.97;24.30;;;;;;;2.74;77.27;100999.41;4971375;28;20445;-46
2021/12/11 08:44:38;;;;;;;34.00;22.40;;;;;;;2.79;77.26;101001.59;4971028;28;20433;-45
2021/12/11 08:47:09;;;;;;;34.37;23.03;;;;;;;2.82;77.75;101003.97;4971286;28;20474;-45
2021/12/11 08:49:41;;;;;;;33.10;20.73;;;;;;;2.85;78.06;101008.09;4971013;28;20924;-45
2021/12/11 08:52:14;;;;;;;41.87;22.37;;;;;;;2.89;78.09;101006.88;4971272;28;20426;-44
2021/12/11 08:54:42;;;;;;;36.03;22.50;;;;;;;2.90;79.04;101013.81;4971303;28;20427;-44
2021/12/11 08:57:13;;;;;;;35.87;22.70;;;;;;;2.91;79.88;101005.75;4970679;28;20490;-45
2021/12/11 08:59:46;;;;;;;36.50;20.73;;;;;;;2.96;79.67;101013.22;4971057;28;20818;-44
2021/12/11 09:02:17;;;;;;;39.63;22.17;;;;;;;2.96;80.90;101014.06;4971432;28;20431;-44
2021/12/11 09:04:53;;;;;;;32.83;21.73;;;;;;;2.99;81.04;101026.94;4971034;28;20431;-45
2021/12/11 09:07:29;;;;;;;34.13;20.80;;;;;;;3.00;81.75;101022.50;4971299;28;20469;-42
2021/12/11 09:10:01;;;;;;;31.83;21.17;;;;;;;3.01;82.62;101032.91;4970906;28;20459;-46
2021/12/11 09:12:33;;;;;;;29.63;19.03;;;;;;;3.03;82.44;101033.59;4970841;28;20445;-42
2021/12/11 09:15:08;;;;;;;33.03;18.57;;;;;;;3.08;82.62;101038.44;4971377;28;20439;-43
2021/12/11 09:17:40;;;;;;;25.40;17.87;;;;;;;3.08;83.74;101041.91;4971273;28;20478;-43
2021/12/11 09:20:12;;;;;;;26.67;17.50;;;;;;;3.11;83.48;101044.25;4971228;28;20459;-45
2021/12/11 09:22:45;;;;;;;27.10;17.17;;;;;;;3.14;83.41;101045.78;4971081;28;20952;-43
2021/12/11 09:25:17;;;;;;;28.27;17.80;;;;;;;3.16;83.76;101039.41;4971618;28;20443;-45
2021/12/11 09:27:49;;;;;;;26.70;19.07;;;;;;;3.23;82.94;101037.03;4970704;28;20457;-44
2021/12/11 09:30:22;;;;;;;24.63;17.33;;;;;;;3.27;82.88;101039.25;4971123;28;20474;-44
2021/12/11 09:32:53;;;;;;;24.33;16.63;;;;;;;3.34;82.83;101044.78;4971136;28;20921;-43
2021/12/11 09:35:24;;;;;;;24.50;15.93;;;;;;;3.40;83.70;101053.91;4970798;28;20449;-44
2021/12/11 09:37:57;;;;;;;21.43;14.90;;;;;;;3.46;84.63;101059.47;4970969;28;20475;-43
2021/12/11 09:40:50;;;;;;;25.20;15.83;;;;;;;3.52;84.71;101058.06;4970596;28;20477;-44
2021/12/11 09:43:32;;;;;;;19.23;14.90;;;;;;;3.66;84.33;101054.94;4971295;28;20441;-41
2021/12/11 09:46:00;;;;;;;18.30;13.17;;;;;;;3.71;84.46;101048.25;4971257;28;20450;-44
2021/12/11 09:48:29;;;;;;;17.97;14.67;;;;;;;3.79;86.10;101051.00;4969298;28;20455;-41
2021/12/11 09:53:28;;;;;;;14.80;12.40;;;;;;;3.92;86.94;101050.66;4949363;28;20463;-42
2021/12/11 09:55:56;;;;;;;13.97;12.17;;;;;;;4.00;87.06;101068.41;4954528;29;20439;-42
2021/12/11 09:58:32;;;;;;;15.40;12.23;;;;;;;4.07;87.82;101080.03;4954852;28;20506;-40
2021/12/11 10:01:10;;;;;;;15.87;13.03;;;;;;;4.14;88.69;101081.13;4954274;28;20513;-43
2021/12/11 10:03:45;;;;;;;16.40;13.00;;;;;;;4.22;88.60;101079.41;4954919;29;20436;-41
2021/12/11 10:06:39;;;;;;;14.07;12.53;;;;;;;4.33;87.67;101081.03;4954601;29;20443;-43
2021/12/11 10:09:19;;;;;;;18.70;12.47;;;;;;;4.40;88.09;101077.63;4954807;29;20933;-42
2021/12/11 10:11:58;;;;;;;17.30;13.50;;;;;;;4.47;87.55;101084.00;4954021;28;21061;-44
2021/12/11 10:14:31;;;;;;;29.17;17.00;;;;;;;4.47;89.13;101084.00;4954457;29;20976;-44
2021/12/11 10:17:02;;;;;;;24.83;17.87;;;;;;;4.48;89.58;101084.78;4954741;29;20489;-42
2021/12/11 10:19:30;;;;;;;26.20;19.17;;;;;;;4.44;89.67;101088.72;4954385;29;20532;-42
2021/12/11 10:22:06;;;;;;;32.00;20.40;;;;;;;4.40;90.10;101088.19;4952802;28;20464;-45
2021/12/11 10:24:36;;;;;;;27.83;20.50;;;;;;;4.42;89.39;101095.97;4954426;29;20802;-45
2021/12/11 10:27:07;;;;;;;27.10;19.40;;;;;;;4.37;90.10;101093.78;4954455;29;20432;-44
2021/12/11 10:29:36;;;;;;;26.17;20.93;;;;;;;4.40;89.63;101090.00;4954258;28;20436;-42
2021/12/11 10:32:10;;;;;;;31.20;20.93;;;;;;;4.43;89.30;101087.06;4953783;29;20965;-43
2021/12/11 10:34:40;;;;;;;25.97;20.73;;;;;;;4.44;89.29;101097.50;4954700;29;20436;-45
2021/12/11 10:37:11;;;;;;;29.97;19.57;;;;;;;4.49;89.08;101094.38;4955937;29;20859;-44
2021/12/11 10:39:43;;;;;;;32.30;22.00;;;;;;;4.52;88.70;101094.09;4953898;28;20446;-45
2021/12/11 10:42:13;;;;;;;27.00;21.27;;;;;;;4.55;88.94;101096.44;4955708;28;20455;-44
2021/12/11 10:44:47;;;;;;;31.63;21.37;;;;;;;4.57;89.67;101101.59;4955480;28;20440;-46
2021/12/11 10:47:18;;;;;;;29.90;22.50;;;;;;;4.62;89.64;101105.44;4955583;28;20443;-44
2021/12/11 10:50:10;;;;;;;33.93;21.57;;;;;;;4.60;89.87;101103.94;4954930;28;20468;-45
2021/12/11 10:52:38;;;;;;;28.87;20.60;;;;;;;4.57;90.00;101105.03;4955197;28;20472;-47
2021/12/11 10:55:09;;;;;;;33.30;22.70;;;;;;;4.57;90.13;101110.31;4955328;28;20440;-41
2021/12/11 10:57:37;;;;;;;30.20;22.63;;;;;;;4.55;90.24;101114.09;4955883;28;20503;-44
2021/12/11 11:00:15;;;;;;;32.53;22.50;;;;;;;4.52;89.83;101109.94;4955226;28;20464;-44
2021/12/11 11:02:44;;;;;;;36.60;22.67;;;;;;;4.44;90.55;101113.34;4955349;28;20451;-46
2021/12/11 11:05:14;;;;;;;34.33;22.43;;;;;;;4.38;90.13;101113.94;4954662;28;20530;-42
2021/12/11 11:07:43;;;;;;;28.40;22.47;;;;;;;4.35;89.76;101114.22;4955257;28;21024;-47
2021/12/11 11:10:14;;;;;;;37.87;24.63;;;;;;;4.33;89.11;101108.22;4955085;28;20471;-47
2021/12/11 11:12:42;;;;;;;30.43;21.77;;;;;;;4.36;88.07;101117.69;4955109;28;20464;-46
2021/12/11 11:15:17;;;;;;;32.43;22.07;;;;;;;4.38;87.72;101131.56;4954950;28;20984;-42
2021/12/11 11:17:44;;;;;;;30.77;21.83;;;;;;;4.45;86.60;101124.69;4955008;28;20476;-43
2021/12/11 11:20:18;;;;;;;35.47;22.30;;;;;;;4.53;85.96;101131.91;4954633;28;20475;-43
2021/12/11 11:22:46;;;;;;;33.30;23.50;;;;;;;4.64;85.23;101140.44;4955017;28;20452;-44
2021/12/11 11:25:18;;;;;;;37.10;25.57;;;;;;;4.78;84.70;101134.66;4955207;28;20448;-43
2021/12/11 11:27:47;;;;;;;30.43;21.80;;;;;;;4.85;86.34;101126.94;4955268;28;20438;-47
2021/12/11 11:30:25;;;;;;;30.73;22.60;;;;;;;4.92;86.71;101128.88;4954514;28;20472;-42
2021/12/11 11:32:52;;;;;;;33.03;21.37;;;;;;;4.97;86.77;101126.59;4954548;28;20452;-42
2021/12/11 11:35:24;;;;;;;32.63;22.90;;;;;;;5.00;88.56;101130.72;4954832;28;20941;-42
2021/12/11 11:37:57;;;;;;;24.53;20.47;;;;;;;5.03;88.57;101123.34;4955287;28;20569;-43
2021/12/11 11:40:28;;;;;;;32.63;21.20;;;;;;;5.09;88.76;101127.19;4946564;28;20459;-46